sensor_id;sensor_type;location;lat;lon;timestamp;P1;durP1;ratioP1;P2;durP2;ratioP2
50205;SDS011;36098;48.390;10.856;2023-12-07T00:00:07;13.75;;;6.15;;
50205;SDS011;36098;48.390;10.856;2023-12-07T00:02:33;12.15;;;5.80;;
50205;SDS011;36098;48.390;10.856;2023-12-07T00:05:04;14.77;;;5.68;;
50205;SDS011;36098;48.390;10.856;2023-12-07T00:07:30;11.98;;;5.72;;
50205;SDS011;36098;48.390;10.856;2023-12-07T00:10:02;14.65;;;5.88;;
50205;SDS011;36098;48.390;10.856;2023-12-07T00:12:30;15.85;;;5.47;;
50205;SDS011;36098;48.390;10.856;2023-12-07T00:14:55;11.98;;;5.50;;
50205;SDS011;36098;48.390;10.856;2023-12-07T00:17:22;14.63;;;5.10;;
50205;SDS011;36098;48.390;10.856;2023-12-07T00:19:55;13.18;;;5.43;;
50205;SDS011;36098;48.390;10.856;2023-12-07T00:22:23;11.15;;;5.65;;
50205;SDS011;36098;48.390;10.856;2023-12-07T00:24:52;10.98;;;5.13;;
50205;SDS011;36098;48.390;10.856;2023-12-07T00:27:22;10.50;;;5.15;;
50205;SDS011;36098;48.390;10.856;2023-12-07T00:29:49;12.35;;;5.13;;
50205;SDS011;36098;48.390;10.856;2023-12-07T00:32:17;13.40;;;5.55;;
50205;SDS011;36098;48.390;10.856;2023-12-07T00:34:48;13.80;;;5.00;;
50205;SDS011;36098;48.390;10.856;2023-12-07T00:37:14;9.93;;;4.82;;
50205;SDS011;36098;48.390;10.856;2023-12-07T00:39:40;10.93;;;4.93;;
50205;SDS011;36098;48.390;10.856;2023-12-07T00:42:15;12.43;;;4.90;;
50205;SDS011;36098;48.390;10.856;2023-12-07T00:44:43;12.90;;;4.95;;
50205;SDS011;36098;48.390;10.856;2023-12-07T00:47:11;12.30;;;5.00;;
50205;SDS011;36098;48.390;10.856;2023-12-07T00:49:39;12.52;;;5.10;;
50205;SDS011;36098;48.390;10.856;2023-12-07T00:52:08;11.52;;;5.00;;
50205;SDS011;36098;48.390;10.856;2023-12-07T00:54:33;11.65;;;4.85;;
50205;SDS011;36098;48.390;10.856;2023-12-07T00:56:59;9.88;;;4.60;;
50205;SDS011;36098;48.390;10.856;2023-12-07T00:59:24;9.07;;;4.32;;
50205;SDS011;36098;48.390;10.856;2023-12-07T01:01:50;10.35;;;4.55;;
50205;SDS011;36098;48.390;10.856;2023-12-07T01:04:15;11.77;;;4.85;;
50205;SDS011;36098;48.390;10.856;2023-12-07T01:06:41;11.27;;;5.20;;
50205;SDS011;36098;48.390;10.856;2023-12-07T01:09:07;8.73;;;4.65;;
50205;SDS011;36098;48.390;10.856;2023-12-07T01:11:37;10.80;;;4.53;;
50205;SDS011;36098;48.390;10.856;2023-12-07T01:14:03;10.82;;;4.55;;
50205;SDS011;36098;48.390;10.856;2023-12-07T01:16:28;9.55;;;4.47;;
50205;SDS011;36098;48.390;10.856;2023-12-07T01:18:53;11.55;;;4.55;;
50205;SDS011;36098;48.390;10.856;2023-12-07T01:21:18;10.18;;;4.55;;
50205;SDS011;36098;48.390;10.856;2023-12-07T01:23:44;10.60;;;4.50;;
50205;SDS011;36098;48.390;10.856;2023-12-07T01:26:10;9.68;;;4.13;;
50205;SDS011;36098;48.390;10.856;2023-12-07T01:28:35;10.70;;;4.25;;
50205;SDS011;36098;48.390;10.856;2023-12-07T01:31:00;7.40;;;4.40;;
50205;SDS011;36098;48.390;10.856;2023-12-07T01:33:26;9.55;;;3.90;;
50205;SDS011;36098;48.390;10.856;2023-12-07T01:35:51;10.65;;;4.57;;
50205;SDS011;36098;48.390;10.856;2023-12-07T01:38:16;9.93;;;4.05;;
50205;SDS011;36098;48.390;10.856;2023-12-07T01:40:42;9.77;;;4.45;;
50205;SDS011;36098;48.390;10.856;2023-12-07T01:43:07;8.65;;;4.45;;
50205;SDS011;36098;48.390;10.856;2023-12-07T01:45:32;8.52;;;4.22;;
50205;SDS011;36098;48.390;10.856;2023-12-07T01:47:57;8.57;;;4.40;;
50205;SDS011;36098;48.390;10.856;2023-12-07T01:50:24;9.27;;;3.83;;
50205;SDS011;36098;48.390;10.856;2023-12-07T01:52:55;8.13;;;4.03;;
50205;SDS011;36098;48.390;10.856;2023-12-07T01:55:24;9.55;;;3.92;;
50205;SDS011;36098;48.390;10.856;2023-12-07T01:57:52;6.45;;;3.70;;
50205;SDS011;36098;48.390;10.856;2023-12-07T02:00:17;8.82;;;3.83;;
50205;SDS011;36098;48.390;10.856;2023-12-07T02:02:43;9.65;;;4.28;;
50205;SDS011;36098;48.390;10.856;2023-12-07T02:05:10;8.27;;;4.10;;
50205;SDS011;36098;48.390;10.856;2023-12-07T02:07:37;6.85;;;3.95;;
50205;SDS011;36098;48.390;10.856;2023-12-07T02:10:04;7.70;;;4.07;;
50205;SDS011;36098;48.390;10.856;2023-12-07T02:12:30;8.57;;;3.75;;
50205;SDS011;36098;48.390;10.856;2023-12-07T02:14:55;7.80;;;3.90;;
50205;SDS011;36098;48.390;10.856;2023-12-07T02:17:27;8.60;;;4.32;;
50205;SDS011;36098;48.390;10.856;2023-12-07T02:20:01;8.20;;;4.00;;
50205;SDS011;36098;48.390;10.856;2023-12-07T02:22:43;7.72;;;3.58;;
50205;SDS011;36098;48.390;10.856;2023-12-07T02:25:14;6.95;;;3.90;;
50205;SDS011;36098;48.390;10.856;2023-12-07T02:27:43;6.72;;;3.58;;
50205;SDS011;36098;48.390;10.856;2023-12-07T02:30:13;5.82;;;3.42;;
50205;SDS011;36098;48.390;10.856;2023-12-07T02:32:39;8.13;;;3.65;;
50205;SDS011;36098;48.390;10.856;2023-12-07T02:35:06;6.32;;;3.40;;
50205;SDS011;36098;48.390;10.856;2023-12-07T02:37:36;6.15;;;3.58;;
50205;SDS011;36098;48.390;10.856;2023-12-07T02:40:06;8.48;;;3.53;;
50205;SDS011;36098;48.390;10.856;2023-12-07T02:42:39;6.93;;;3.45;;
50205;SDS011;36098;48.390;10.856;2023-12-07T02:45:06;7.68;;;3.50;;
50205;SDS011;36098;48.390;10.856;2023-12-07T02:47:32;6.22;;;3.22;;
50205;SDS011;36098;48.390;10.856;2023-12-07T02:49:58;7.43;;;3.42;;
50205;SDS011;36098;48.390;10.856;2023-12-07T02:52:23;5.97;;;3.50;;
50205;SDS011;36098;48.390;10.856;2023-12-07T02:54:48;6.75;;;3.20;;
50205;SDS011;36098;48.390;10.856;2023-12-07T02:57:13;6.07;;;3.83;;
50205;SDS011;36098;48.390;10.856;2023-12-07T02:59:39;6.75;;;3.60;;
50205;SDS011;36098;48.390;10.856;2023-12-07T03:02:05;6.43;;;3.40;;
50205;SDS011;36098;48.390;10.856;2023-12-07T03:04:30;7.38;;;3.67;;
50205;SDS011;36098;48.390;10.856;2023-12-07T03:06:56;7.63;;;3.47;;
50205;SDS011;36098;48.390;10.856;2023-12-07T03:09:21;6.65;;;3.22;;
50205;SDS011;36098;48.390;10.856;2023-12-07T03:11:46;6.25;;;3.30;;
50205;SDS011;36098;48.390;10.856;2023-12-07T03:14:11;6.63;;;3.30;;
50205;SDS011;36098;48.390;10.856;2023-12-07T03:16:38;5.32;;;3.13;;
50205;SDS011;36098;48.390;10.856;2023-12-07T03:19:03;5.85;;;3.13;;
50205;SDS011;36098;48.390;10.856;2023-12-07T03:21:29;6.28;;;3.38;;
50205;SDS011;36098;48.390;10.856;2023-12-07T03:23:54;6.60;;;3.47;;
50205;SDS011;36098;48.390;10.856;2023-12-07T03:26:19;6.85;;;3.13;;
50205;SDS011;36098;48.390;10.856;2023-12-07T03:28:44;6.18;;;3.08;;
50205;SDS011;36098;48.390;10.856;2023-12-07T03:31:10;5.80;;;3.03;;
50205;SDS011;36098;48.390;10.856;2023-12-07T03:33:35;6.43;;;3.05;;
50205;SDS011;36098;48.390;10.856;2023-12-07T03:36:00;5.82;;;3.28;;
50205;SDS011;36098;48.390;10.856;2023-12-07T03:38:25;5.18;;;3.00;;
50205;SDS011;36098;48.390;10.856;2023-12-07T03:40:51;5.43;;;3.08;;
50205;SDS011;36098;48.390;10.856;2023-12-07T03:43:18;5.68;;;3.10;;
50205;SDS011;36098;48.390;10.856;2023-12-07T03:45:44;5.35;;;3.10;;
50205;SDS011;36098;48.390;10.856;2023-12-07T03:48:09;4.57;;;2.78;;
50205;SDS011;36098;48.390;10.856;2023-12-07T03:50:35;6.05;;;3.20;;
50205;SDS011;36098;48.390;10.856;2023-12-07T03:53:00;5.50;;;3.00;;
50205;SDS011;36098;48.390;10.856;2023-12-07T03:55:25;6.20;;;3.35;;
50205;SDS011;36098;48.390;10.856;2023-12-07T03:57:50;6.22;;;3.00;;
50205;SDS011;36098;48.390;10.856;2023-12-07T04:00:16;6.93;;;3.28;;
50205;SDS011;36098;48.390;10.856;2023-12-07T04:02:41;5.13;;;3.03;;
50205;SDS011;36098;48.390;10.856;2023-12-07T04:05:07;4.63;;;2.70;;
50205;SDS011;36098;48.390;10.856;2023-12-07T04:07:32;5.78;;;2.95;;
50205;SDS011;36098;48.390;10.856;2023-12-07T04:09:57;4.20;;;2.63;;
50205;SDS011;36098;48.390;10.856;2023-12-07T04:12:23;4.80;;;2.80;;
50205;SDS011;36098;48.390;10.856;2023-12-07T04:14:48;4.30;;;2.53;;
50205;SDS011;36098;48.390;10.856;2023-12-07T04:17:14;4.90;;;2.90;;
50205;SDS011;36098;48.390;10.856;2023-12-07T04:19:40;4.30;;;2.55;;
50205;SDS011;36098;48.390;10.856;2023-12-07T04:22:05;4.88;;;2.65;;
50205;SDS011;36098;48.390;10.856;2023-12-07T04:24:30;4.20;;;2.70;;
50205;SDS011;36098;48.390;10.856;2023-12-07T04:26:55;3.70;;;2.35;;
50205;SDS011;36098;48.390;10.856;2023-12-07T04:29:20;4.40;;;2.70;;
50205;SDS011;36098;48.390;10.856;2023-12-07T04:31:46;4.88;;;2.50;;
50205;SDS011;36098;48.390;10.856;2023-12-07T04:34:11;4.75;;;2.80;;
50205;SDS011;36098;48.390;10.856;2023-12-07T04:36:36;4.40;;;2.80;;
50205;SDS011;36098;48.390;10.856;2023-12-07T04:39:01;3.45;;;2.40;;
50205;SDS011;36098;48.390;10.856;2023-12-07T04:41:27;4.90;;;2.38;;
50205;SDS011;36098;48.390;10.856;2023-12-07T04:43:52;3.72;;;2.35;;
50205;SDS011;36098;48.390;10.856;2023-12-07T04:46:17;4.13;;;2.58;;
50205;SDS011;36098;48.390;10.856;2023-12-07T04:48:42;4.93;;;2.55;;
50205;SDS011;36098;48.390;10.856;2023-12-07T04:51:08;5.38;;;2.75;;
50205;SDS011;36098;48.390;10.856;2023-12-07T04:53:33;5.50;;;2.40;;
50205;SDS011;36098;48.390;10.856;2023-12-07T04:55:58;5.53;;;2.50;;
50205;SDS011;36098;48.390;10.856;2023-12-07T04:58:24;4.43;;;2.25;;
50205;SDS011;36098;48.390;10.856;2023-12-07T05:00:49;4.63;;;2.88;;
50205;SDS011;36098;48.390;10.856;2023-12-07T05:03:14;4.43;;;2.33;;
50205;SDS011;36098;48.390;10.856;2023-12-07T05:05:39;4.47;;;2.70;;
50205;SDS011;36098;48.390;10.856;2023-12-07T05:08:05;5.53;;;2.80;;
50205;SDS011;36098;48.390;10.856;2023-12-07T05:10:30;3.80;;;2.30;;
50205;SDS011;36098;48.390;10.856;2023-12-07T05:12:55;5.28;;;2.50;;
50205;SDS011;36098;48.390;10.856;2023-12-07T05:15:22;4.07;;;2.63;;
50205;SDS011;36098;48.390;10.856;2023-12-07T05:17:47;4.72;;;2.20;;
50205;SDS011;36098;48.390;10.856;2023-12-07T05:20:12;3.78;;;2.47;;
50205;SDS011;36098;48.390;10.856;2023-12-07T05:22:38;5.00;;;2.50;;
50205;SDS011;36098;48.390;10.856;2023-12-07T05:25:03;4.07;;;2.35;;
50205;SDS011;36098;48.390;10.856;2023-12-07T05:27:29;4.80;;;2.58;;
50205;SDS011;36098;48.390;10.856;2023-12-07T05:29:55;5.15;;;2.30;;
50205;SDS011;36098;48.390;10.856;2023-12-07T05:32:20;9.48;;;2.65;;
50205;SDS011;36098;48.390;10.856;2023-12-07T05:34:45;10.65;;;3.00;;
50205;SDS011;36098;48.390;10.856;2023-12-07T05:37:11;14.25;;;2.80;;
50205;SDS011;36098;48.390;10.856;2023-12-07T05:39:36;9.82;;;3.47;;
50205;SDS011;36098;48.390;10.856;2023-12-07T05:42:01;8.27;;;2.50;;
50205;SDS011;36098;48.390;10.856;2023-12-07T05:44:29;8.77;;;2.95;;
50205;SDS011;36098;48.390;10.856;2023-12-07T05:46:54;5.57;;;2.40;;
50205;SDS011;36098;48.390;10.856;2023-12-07T05:49:20;7.40;;;2.80;;
50205;SDS011;36098;48.390;10.856;2023-12-07T05:51:47;7.88;;;2.58;;
50205;SDS011;36098;48.390;10.856;2023-12-07T05:54:12;4.25;;;2.55;;
50205;SDS011;36098;48.390;10.856;2023-12-07T05:56:37;5.55;;;2.50;;
50205;SDS011;36098;48.390;10.856;2023-12-07T05:59:03;6.30;;;2.45;;
50205;SDS011;36098;48.390;10.856;2023-12-07T06:01:28;18.88;;;2.83;;
50205;SDS011;36098;48.390;10.856;2023-12-07T06:03:53;9.23;;;2.90;;
50205;SDS011;36098;48.390;10.856;2023-12-07T06:06:19;8.77;;;2.47;;
50205;SDS011;36098;48.390;10.856;2023-12-07T06:08:46;10.18;;;2.65;;
50205;SDS011;36098;48.390;10.856;2023-12-07T06:11:11;9.13;;;2.80;;
50205;SDS011;36098;48.390;10.856;2023-12-07T06:13:37;7.38;;;2.90;;
50205;SDS011;36098;48.390;10.856;2023-12-07T06:16:02;12.82;;;2.72;;
50205;SDS011;36098;48.390;10.856;2023-12-07T06:18:28;10.02;;;3.10;;
50205;SDS011;36098;48.390;10.856;2023-12-07T06:20:53;11.57;;;2.60;;
50205;SDS011;36098;48.390;10.856;2023-12-07T06:23:18;10.85;;;2.70;;
50205;SDS011;36098;48.390;10.856;2023-12-07T06:25:43;6.07;;;2.70;;
50205;SDS011;36098;48.390;10.856;2023-12-07T06:28:09;13.40;;;2.58;;
50205;SDS011;36098;48.390;10.856;2023-12-07T06:30:34;8.63;;;2.60;;
50205;SDS011;36098;48.390;10.856;2023-12-07T06:33:00;6.85;;;2.95;;
50205;SDS011;36098;48.390;10.856;2023-12-07T06:35:25;6.82;;;2.20;;
50205;SDS011;36098;48.390;10.856;2023-12-07T06:37:50;7.68;;;2.33;;
50205;SDS011;36098;48.390;10.856;2023-12-07T06:40:16;6.10;;;3.00;;
50205;SDS011;36098;48.390;10.856;2023-12-07T06:42:41;5.15;;;2.58;;
50205;SDS011;36098;48.390;10.856;2023-12-07T06:45:06;5.43;;;2.67;;
50205;SDS011;36098;48.390;10.856;2023-12-07T06:47:36;6.78;;;2.47;;
50205;SDS011;36098;48.390;10.856;2023-12-07T06:50:02;7.90;;;2.50;;
50205;SDS011;36098;48.390;10.856;2023-12-07T06:52:28;5.50;;;2.58;;
50205;SDS011;36098;48.390;10.856;2023-12-07T06:54:53;6.63;;;2.13;;
50205;SDS011;36098;48.390;10.856;2023-12-07T06:57:18;6.90;;;2.55;;
50205;SDS011;36098;48.390;10.856;2023-12-07T06:59:44;7.18;;;2.33;;
50205;SDS011;36098;48.390;10.856;2023-12-07T07:02:09;6.03;;;2.72;;
50205;SDS011;36098;48.390;10.856;2023-12-07T07:04:34;8.38;;;2.85;;
50205;SDS011;36098;48.390;10.856;2023-12-07T07:07:00;6.15;;;2.47;;
50205;SDS011;36098;48.390;10.856;2023-12-07T07:09:25;6.07;;;2.80;;
50205;SDS011;36098;48.390;10.856;2023-12-07T07:11:51;8.15;;;3.35;;
50205;SDS011;36098;48.390;10.856;2023-12-07T07:14:16;5.70;;;2.92;;
50205;SDS011;36098;48.390;10.856;2023-12-07T07:16:41;5.18;;;2.70;;
50205;SDS011;36098;48.390;10.856;2023-12-07T07:19:07;7.63;;;2.90;;
50205;SDS011;36098;48.390;10.856;2023-12-07T07:21:32;5.70;;;2.72;;
50205;SDS011;36098;48.390;10.856;2023-12-07T07:23:57;8.32;;;2.90;;
50205;SDS011;36098;48.390;10.856;2023-12-07T07:26:22;4.78;;;2.65;;
50205;SDS011;36098;48.390;10.856;2023-12-07T07:28:50;5.43;;;2.20;;
50205;SDS011;36098;48.390;10.856;2023-12-07T07:31:16;7.32;;;2.45;;
50205;SDS011;36098;48.390;10.856;2023-12-07T07:33:42;6.53;;;2.75;;
50205;SDS011;36098;48.390;10.856;2023-12-07T07:36:08;5.60;;;2.45;;
50205;SDS011;36098;48.390;10.856;2023-12-07T07:38:33;4.38;;;2.47;;
50205;SDS011;36098;48.390;10.856;2023-12-07T07:40:58;5.32;;;2.53;;
50205;SDS011;36098;48.390;10.856;2023-12-07T07:43:24;4.47;;;2.40;;
50205;SDS011;36098;48.390;10.856;2023-12-07T07:45:49;5.57;;;2.42;;
50205;SDS011;36098;48.390;10.856;2023-12-07T07:48:14;6.63;;;2.70;;
50205;SDS011;36098;48.390;10.856;2023-12-07T07:50:40;5.10;;;2.50;;
50205;SDS011;36098;48.390;10.856;2023-12-07T07:53:05;4.20;;;2.42;;
50205;SDS011;36098;48.390;10.856;2023-12-07T07:55:30;5.32;;;2.72;;
50205;SDS011;36098;48.390;10.856;2023-12-07T07:57:56;5.10;;;2.33;;
50205;SDS011;36098;48.390;10.856;2023-12-07T08:00:21;5.45;;;2.22;;
50205;SDS011;36098;48.390;10.856;2023-12-07T08:02:47;2.58;;;1.92;;
50205;SDS011;36098;48.390;10.856;2023-12-07T08:05:12;5.45;;;2.28;;
50205;SDS011;36098;48.390;10.856;2023-12-07T08:07:37;5.22;;;2.33;;
50205;SDS011;36098;48.390;10.856;2023-12-07T08:10:04;4.55;;;2.40;;
50205;SDS011;36098;48.390;10.856;2023-12-07T08:12:31;4.22;;;2.38;;
50205;SDS011;36098;48.390;10.856;2023-12-07T08:14:56;4.50;;;2.58;;
50205;SDS011;36098;48.390;10.856;2023-12-07T08:17:21;3.00;;;2.17;;
50205;SDS011;36098;48.390;10.856;2023-12-07T08:19:47;3.88;;;2.13;;
50205;SDS011;36098;48.390;10.856;2023-12-07T08:22:12;5.10;;;2.13;;
50205;SDS011;36098;48.390;10.856;2023-12-07T08:24:40;4.15;;;2.10;;
50205;SDS011;36098;48.390;10.856;2023-12-07T08:27:06;5.00;;;2.63;;
50205;SDS011;36098;48.390;10.856;2023-12-07T08:29:31;3.85;;;2.08;;
50205;SDS011;36098;48.390;10.856;2023-12-07T08:31:56;4.40;;;2.38;;
50205;SDS011;36098;48.390;10.856;2023-12-07T08:34:21;5.03;;;2.22;;
50205;SDS011;36098;48.390;10.856;2023-12-07T08:36:47;4.00;;;2.10;;
50205;SDS011;36098;48.390;10.856;2023-12-07T08:39:12;3.13;;;2.00;;
50205;SDS011;36098;48.390;10.856;2023-12-07T08:41:38;4.65;;;2.60;;
50205;SDS011;36098;48.390;10.856;2023-12-07T08:44:03;6.68;;;2.28;;
50205;SDS011;36098;48.390;10.856;2023-12-07T08:46:29;4.00;;;2.20;;
50205;SDS011;36098;48.390;10.856;2023-12-07T08:48:54;3.90;;;2.33;;
50205;SDS011;36098;48.390;10.856;2023-12-07T08:51:21;3.90;;;2.50;;
50205;SDS011;36098;48.390;10.856;2023-12-07T08:53:46;2.70;;;2.00;;
50205;SDS011;36098;48.390;10.856;2023-12-07T08:56:11;4.78;;;2.15;;
50205;SDS011;36098;48.390;10.856;2023-12-07T08:58:38;4.75;;;2.30;;
50205;SDS011;36098;48.390;10.856;2023-12-07T09:01:03;4.40;;;2.40;;
50205;SDS011;36098;48.390;10.856;2023-12-07T09:03:30;4.03;;;2.47;;
50205;SDS011;36098;48.390;10.856;2023-12-07T09:05:57;6.40;;;2.50;;
50205;SDS011;36098;48.390;10.856;2023-12-07T09:08:22;6.60;;;2.60;;
50205;SDS011;36098;48.390;10.856;2023-12-07T09:10:48;4.82;;;2.55;;
50205;SDS011;36098;48.390;10.856;2023-12-07T09:13:15;6.38;;;2.47;;
50205;SDS011;36098;48.390;10.856;2023-12-07T09:15:40;4.47;;;2.50;;
50205;SDS011;36098;48.390;10.856;2023-12-07T09:18:07;5.85;;;2.80;;
50205;SDS011;36098;48.390;10.856;2023-12-07T09:20:32;6.38;;;2.70;;
50205;SDS011;36098;48.390;10.856;2023-12-07T09:22:58;6.53;;;3.08;;
50205;SDS011;36098;48.390;10.856;2023-12-07T09:25:23;5.65;;;2.80;;
50205;SDS011;36098;48.390;10.856;2023-12-07T09:27:52;8.25;;;2.67;;
50205;SDS011;36098;48.390;10.856;2023-12-07T09:30:18;6.82;;;3.20;;
50205;SDS011;36098;48.390;10.856;2023-12-07T09:32:43;8.63;;;2.90;;
50205;SDS011;36098;48.390;10.856;2023-12-07T09:35:09;6.43;;;2.67;;
50205;SDS011;36098;48.390;10.856;2023-12-07T09:37:43;9.85;;;2.85;;
50205;SDS011;36098;48.390;10.856;2023-12-07T09:40:13;6.88;;;2.75;;
50205;SDS011;36098;48.390;10.856;2023-12-07T09:42:50;7.25;;;2.75;;
50205;SDS011;36098;48.390;10.856;2023-12-07T09:45:16;5.70;;;2.63;;
50205;SDS011;36098;48.390;10.856;2023-12-07T09:47:43;5.40;;;2.70;;
50205;SDS011;36098;48.390;10.856;2023-12-07T09:50:12;5.85;;;2.90;;
50205;SDS011;36098;48.390;10.856;2023-12-07T09:52:42;8.73;;;3.13;;
50205;SDS011;36098;48.390;10.856;2023-12-07T09:55:08;7.93;;;2.95;;
50205;SDS011;36098;48.390;10.856;2023-12-07T09:57:34;6.40;;;2.70;;
50205;SDS011;36098;48.390;10.856;2023-12-07T10:00:05;6.03;;;2.92;;
50205;SDS011;36098;48.390;10.856;2023-12-07T10:02:36;6.95;;;2.78;;
50205;SDS011;36098;48.390;10.856;2023-12-07T10:05:03;7.30;;;2.88;;
50205;SDS011;36098;48.390;10.856;2023-12-07T10:07:33;7.22;;;2.75;;
50205;SDS011;36098;48.390;10.856;2023-12-07T10:10:02;7.65;;;2.65;;
50205;SDS011;36098;48.390;10.856;2023-12-07T10:12:32;4.57;;;2.38;;
50205;SDS011;36098;48.390;10.856;2023-12-07T10:15:01;8.07;;;2.63;;
50205;SDS011;36098;48.390;10.856;2023-12-07T10:17:46;7.03;;;3.00;;
50205;SDS011;36098;48.390;10.856;2023-12-07T10:20:22;5.18;;;2.75;;
50205;SDS011;36098;48.390;10.856;2023-12-07T10:23:10;13.70;;;2.97;;
50205;SDS011;36098;48.390;10.856;2023-12-07T10:25:38;4.22;;;2.53;;
50205;SDS011;36098;48.390;10.856;2023-12-07T10:28:08;5.20;;;2.43;;
50205;SDS011;36098;48.390;10.856;2023-12-07T10:30:36;9.63;;;3.10;;
50205;SDS011;36098;48.390;10.856;2023-12-07T10:33:05;5.68;;;2.70;;
50205;SDS011;36098;48.390;10.856;2023-12-07T10:35:41;6.35;;;2.65;;
50205;SDS011;36098;48.390;10.856;2023-12-07T10:38:08;4.75;;;2.75;;
50205;SDS011;36098;48.390;10.856;2023-12-07T10:40:34;7.40;;;3.08;;
50205;SDS011;36098;48.390;10.856;2023-12-07T10:42:59;8.55;;;2.83;;
50205;SDS011;36098;48.390;10.856;2023-12-07T10:45:30;5.25;;;2.53;;
50205;SDS011;36098;48.390;10.856;2023-12-07T10:48:01;7.65;;;2.83;;
50205;SDS011;36098;48.390;10.856;2023-12-07T10:50:30;7.50;;;2.90;;
50205;SDS011;36098;48.390;10.856;2023-12-07T10:52:57;7.05;;;2.90;;
50205;SDS011;36098;48.390;10.856;2023-12-07T10:55:28;7.05;;;3.03;;
50205;SDS011;36098;48.390;10.856;2023-12-07T10:57:54;6.43;;;2.83;;
50205;SDS011;36098;48.390;10.856;2023-12-07T11:00:20;7.80;;;2.60;;
50205;SDS011;36098;48.390;10.856;2023-12-07T11:02:52;4.75;;;2.30;;
50205;SDS011;36098;48.390;10.856;2023-12-07T11:05:18;5.28;;;2.70;;
50205;SDS011;36098;48.390;10.856;2023-12-07T11:07:55;7.43;;;2.53;;
50205;SDS011;36098;48.390;10.856;2023-12-07T11:10:25;4.28;;;2.40;;
50205;SDS011;36098;48.390;10.856;2023-12-07T11:12:59;4.40;;;2.40;;
50205;SDS011;36098;48.390;10.856;2023-12-07T11:15:31;6.45;;;2.50;;
50205;SDS011;36098;48.390;10.856;2023-12-07T11:17:57;6.15;;;2.53;;
50205;SDS011;36098;48.390;10.856;2023-12-07T11:20:39;6.35;;;2.60;;
50205;SDS011;36098;48.390;10.856;2023-12-07T11:23:17;6.18;;;2.50;;
50205;SDS011;36098;48.390;10.856;2023-12-07T11:25:44;5.78;;;2.20;;
50205;SDS011;36098;48.390;10.856;2023-12-07T11:28:10;5.72;;;2.17;;
50205;SDS011;36098;48.390;10.856;2023-12-07T11:30:37;7.00;;;2.10;;
50205;SDS011;36098;48.390;10.856;2023-12-07T11:33:04;6.03;;;2.72;;
50205;SDS011;36098;48.390;10.856;2023-12-07T11:35:30;5.13;;;2.80;;
50205;SDS011;36098;48.390;10.856;2023-12-07T11:40:31;4.50;;;2.47;;
50205;SDS011;36098;48.390;10.856;2023-12-07T11:43:00;5.18;;;2.55;;
50205;SDS011;36098;48.390;10.856;2023-12-07T11:48:21;5.18;;;2.53;;
50205;SDS011;36098;48.390;10.856;2023-12-07T11:50:54;7.72;;;2.40;;
50205;SDS011;36098;48.390;10.856;2023-12-07T11:53:36;10.10;;;2.60;;
50205;SDS011;36098;48.390;10.856;2023-12-07T11:56:03;7.70;;;2.53;;
50205;SDS011;36098;48.390;10.856;2023-12-07T11:58:30;4.35;;;2.33;;
50205;SDS011;36098;48.390;10.856;2023-12-07T12:00:56;8.77;;;2.55;;
50205;SDS011;36098;48.390;10.856;2023-12-07T12:03:23;9.18;;;2.70;;
50205;SDS011;36098;48.390;10.856;2023-12-07T12:05:48;6.28;;;2.47;;
50205;SDS011;36098;48.390;10.856;2023-12-07T12:08:15;6.13;;;2.88;;
50205;SDS011;36098;48.390;10.856;2023-12-07T12:10:42;5.38;;;2.50;;
50205;SDS011;36098;48.390;10.856;2023-12-07T12:13:08;6.30;;;2.58;;
50205;SDS011;36098;48.390;10.856;2023-12-07T12:15:33;7.05;;;2.58;;
50205;SDS011;36098;48.390;10.856;2023-12-07T12:17:59;5.95;;;2.80;;
50205;SDS011;36098;48.390;10.856;2023-12-07T12:20:25;7.30;;;2.53;;
50205;SDS011;36098;48.390;10.856;2023-12-07T12:22:51;7.65;;;2.65;;
50205;SDS011;36098;48.390;10.856;2023-12-07T12:25:26;6.60;;;2.40;;
50205;SDS011;36098;48.390;10.856;2023-12-07T12:27:55;4.45;;;2.25;;
50205;SDS011;36098;48.390;10.856;2023-12-07T12:30:21;5.72;;;2.40;;
50205;SDS011;36098;48.390;10.856;2023-12-07T12:32:48;8.32;;;2.78;;
50205;SDS011;36098;48.390;10.856;2023-12-07T12:35:13;7.88;;;2.70;;
50205;SDS011;36098;48.390;10.856;2023-12-07T12:37:42;6.82;;;2.85;;
50205;SDS011;36098;48.390;10.856;2023-12-07T12:40:09;7.68;;;2.58;;
50205;SDS011;36098;48.390;10.856;2023-12-07T12:42:35;7.03;;;3.00;;
50205;SDS011;36098;48.390;10.856;2023-12-07T12:45:02;9.80;;;3.00;;
50205;SDS011;36098;48.390;10.856;2023-12-07T12:47:33;14.88;;;2.97;;
50205;SDS011;36098;48.390;10.856;2023-12-07T12:49:59;7.90;;;2.90;;
50205;SDS011;36098;48.390;10.856;2023-12-07T12:52:25;8.50;;;2.55;;
50205;SDS011;36098;48.390;10.856;2023-12-07T12:54:55;11.80;;;2.85;;
50205;SDS011;36098;48.390;10.856;2023-12-07T12:57:21;9.75;;;2.83;;
50205;SDS011;36098;48.390;10.856;2023-12-07T12:59:47;6.72;;;2.90;;
50205;SDS011;36098;48.390;10.856;2023-12-07T13:02:13;6.05;;;2.40;;
50205;SDS011;36098;48.390;10.856;2023-12-07T13:04:38;8.82;;;2.42;;
50205;SDS011;36098;48.390;10.856;2023-12-07T13:07:05;7.78;;;2.38;;
50205;SDS011;36098;48.390;10.856;2023-12-07T13:09:30;9.00;;;2.47;;
50205;SDS011;36098;48.390;10.856;2023-12-07T13:11:57;6.88;;;2.72;;
50205;SDS011;36098;48.390;10.856;2023-12-07T13:14:23;7.22;;;2.58;;
50205;SDS011;36098;48.390;10.856;2023-12-07T13:16:48;8.27;;;2.42;;
50205;SDS011;36098;48.390;10.856;2023-12-07T13:19:13;12.40;;;2.80;;
50205;SDS011;36098;48.390;10.856;2023-12-07T13:21:38;8.23;;;2.50;;
50205;SDS011;36098;48.390;10.856;2023-12-07T13:24:04;12.10;;;2.50;;
50205;SDS011;36098;48.390;10.856;2023-12-07T13:26:30;8.30;;;2.67;;
50205;SDS011;36098;48.390;10.856;2023-12-07T13:28:56;6.57;;;2.33;;
50205;SDS011;36098;48.390;10.856;2023-12-07T13:31:21;7.20;;;2.40;;
50205;SDS011;36098;48.390;10.856;2023-12-07T13:33:47;8.65;;;2.40;;
50205;SDS011;36098;48.390;10.856;2023-12-07T13:36:14;10.18;;;2.40;;
50205;SDS011;36098;48.390;10.856;2023-12-07T13:38:42;6.43;;;2.00;;
50205;SDS011;36098;48.390;10.856;2023-12-07T13:41:08;6.78;;;2.00;;
50205;SDS011;36098;48.390;10.856;2023-12-07T13:43:33;6.88;;;2.30;;
50205;SDS011;36098;48.390;10.856;2023-12-07T13:45:59;4.63;;;1.92;;
50205;SDS011;36098;48.390;10.856;2023-12-07T13:48:24;7.05;;;1.90;;
50205;SDS011;36098;48.390;10.856;2023-12-07T13:50:50;6.85;;;2.08;;
50205;SDS011;36098;48.390;10.856;2023-12-07T13:53:15;7.10;;;2.03;;
50205;SDS011;36098;48.390;10.856;2023-12-07T13:55:40;4.70;;;1.85;;
50205;SDS011;36098;48.390;10.856;2023-12-07T13:58:06;8.98;;;1.77;;
50205;SDS011;36098;48.390;10.856;2023-12-07T14:00:37;10.40;;;1.80;;
50205;SDS011;36098;48.390;10.856;2023-12-07T14:03:03;6.10;;;1.98;;
50205;SDS011;36098;48.390;10.856;2023-12-07T14:05:31;5.95;;;1.73;;
50205;SDS011;36098;48.390;10.856;2023-12-07T14:07:56;4.60;;;1.83;;
50205;SDS011;36098;48.390;10.856;2023-12-07T14:10:22;6.80;;;1.75;;
50205;SDS011;36098;48.390;10.856;2023-12-07T14:12:47;5.68;;;1.80;;
50205;SDS011;36098;48.390;10.856;2023-12-07T14:15:13;8.73;;;2.08;;
50205;SDS011;36098;48.390;10.856;2023-12-07T14:17:38;7.38;;;2.22;;
50205;SDS011;36098;48.390;10.856;2023-12-07T14:22:30;7.35;;;2.05;;
50205;SDS011;36098;48.390;10.856;2023-12-07T14:24:55;6.68;;;1.90;;
50205;SDS011;36098;48.390;10.856;2023-12-07T14:27:20;5.85;;;1.70;;
50205;SDS011;36098;48.390;10.856;2023-12-07T14:29:46;5.97;;;2.20;;
50205;SDS011;36098;48.390;10.856;2023-12-07T14:32:11;7.13;;;2.00;;
50205;SDS011;36098;48.390;10.856;2023-12-07T14:34:37;5.88;;;1.80;;
50205;SDS011;36098;48.390;10.856;2023-12-07T14:37:03;4.53;;;2.25;;